sensor_id;sensor_type;location;lat;lon;timestamp;pressure;altitude;pressure_sealevel;temperature;humidity
36190;BME280;22232;50.914;13.858;2023-04-23T00:01:57;97053.09;;;14.97;74.56
36190;BME280;22232;50.914;13.858;2023-04-23T00:04:26;97041.28;;;14.98;74.75
36190;BME280;22232;50.914;13.858;2023-04-23T00:06:56;97043.69;;;14.99;76.29
36190;BME280;22232;50.914;13.858;2023-04-23T00:09:25;97042.84;;;15.04;75.54
36190;BME280;22232;50.914;13.858;2023-04-23T00:11:56;97035.81;;;15.13;74.16
36190;BME280;22232;50.914;13.858;2023-04-23T00:14:24;97040.31;;;15.23;71.88
36190;BME280;22232;50.914;13.858;2023-04-23T00:16:52;97042.72;;;15.24;74.08
36190;BME280;22232;50.914;13.858;2023-04-23T00:19:20;97037.41;;;15.19;73.01
36190;BME280;22232;50.914;13.858;2023-04-23T00:21:47;97037.63;;;15.23;73.22
36190;BME280;22232;50.914;13.858;2023-04-23T00:24:15;97036.31;;;15.15;75.35
36190;BME280;22232;50.914;13.858;2023-04-23T00:26:42;97035.22;;;15.21;74.29
36190;BME280;22232;50.914;13.858;2023-04-23T00:29:10;97031.50;;;15.17;74.38
36190;BME280;22232;50.914;13.858;2023-04-23T00:31:37;97029.34;;;15.14;74.42
36190;BME280;22232;50.914;13.858;2023-04-23T00:34:05;97023.75;;;15.10;73.97
36190;BME280;22232;50.914;13.858;2023-04-23T00:36:33;97028.00;;;15.17;74.41
36190;BME280;22232;50.914;13.858;2023-04-23T00:39:00;97022.09;;;15.14;75.36
36190;BME280;22232;50.914;13.858;2023-04-23T00:41:28;97020.75;;;15.17;74.10
36190;BME280;22232;50.914;13.858;2023-04-23T00:43:56;97019.38;;;15.20;73.13
36190;BME280;22232;50.914;13.858;2023-04-23T00:46:24;97027.44;;;15.20;73.75
36190;BME280;22232;50.914;13.858;2023-04-23T00:48:53;97020.75;;;15.17;74.49
36190;BME280;22232;50.914;13.858;2023-04-23T00:51:21;97025.31;;;15.17;74.70
36190;BME280;22232;50.914;13.858;2023-04-23T00:53:51;97026.44;;;15.10;74.39
36190;BME280;22232;50.914;13.858;2023-04-23T00:56:19;97017.25;;;15.17;74.62
36190;BME280;22232;50.914;13.858;2023-04-23T00:58:48;97022.91;;;15.15;76.24
36190;BME280;22232;50.914;13.858;2023-04-23T01:01:16;97022.66;;;15.11;73.79
36190;BME280;22232;50.914;13.858;2023-04-23T01:03:47;97023.44;;;15.12;74.11
36190;BME280;22232;50.914;13.858;2023-04-23T01:06:16;97027.53;;;15.09;78.79
36190;BME280;22232;50.914;13.858;2023-04-23T01:08:45;97020.84;;;15.02;78.01
36190;BME280;22232;50.914;13.858;2023-04-23T01:11:15;97013.34;;;14.99;77.89
36190;BME280;22232;50.914;13.858;2023-04-23T01:13:43;97009.31;;;15.01;76.19
36190;BME280;22232;50.914;13.858;2023-04-23T01:16:10;97011.47;;;14.99;77.50
36190;BME280;22232;50.914;13.858;2023-04-23T01:18:38;97013.06;;;15.00;75.72
36190;BME280;22232;50.914;13.858;2023-04-23T01:21:09;97014.94;;;15.00;76.51
36190;BME280;22232;50.914;13.858;2023-04-23T01:23:38;97011.47;;;14.94;76.60
36190;BME280;22232;50.914;13.858;2023-04-23T01:26:06;97017.38;;;14.96;76.67
36190;BME280;22232;50.914;13.858;2023-04-23T01:28:35;97017.94;;;14.93;76.49
36190;BME280;22232;50.914;13.858;2023-04-23T01:31:03;97026.31;;;14.86;78.16
36190;BME280;22232;50.914;13.858;2023-04-23T01:33:31;97023.41;;;14.78;79.29
36190;BME280;22232;50.914;13.858;2023-04-23T01:36:00;97023.16;;;14.69;82.52
36190;BME280;22232;50.914;13.858;2023-04-23T01:38:30;97024.25;;;14.68;80.66
36190;BME280;22232;50.914;13.858;2023-04-23T01:40:59;97028.59;;;14.64;80.30
36190;BME280;22232;50.914;13.858;2023-04-23T01:43:27;97023.69;;;14.71;78.92
36190;BME280;22232;50.914;13.858;2023-04-23T01:45:54;97029.88;;;14.66;78.16
36190;BME280;22232;50.914;13.858;2023-04-23T01:48:23;97026.38;;;14.71;78.69
36190;BME280;22232;50.914;13.858;2023-04-23T01:50:51;97019.44;;;14.70;78.17
36190;BME280;22232;50.914;13.858;2023-04-23T01:53:19;97023.97;;;14.69;78.45
36190;BME280;22232;50.914;13.858;2023-04-23T01:55:47;97028.22;;;14.76;78.04
36190;BME280;22232;50.914;13.858;2023-04-23T01:58:17;97023.94;;;14.80;77.35
36190;BME280;22232;50.914;13.858;2023-04-23T02:00:45;97021.56;;;14.73;78.65
36190;BME280;22232;50.914;13.858;2023-04-23T02:03:14;97024.00;;;14.64;80.98
36190;BME280;22232;50.914;13.858;2023-04-23T02:05:41;97024.81;;;14.65;79.60
36190;BME280;22232;50.914;13.858;2023-04-23T02:08:11;97028.28;;;14.65;80.69
36190;BME280;22232;50.914;13.858;2023-04-23T02:10:38;97021.59;;;14.63;81.54
36190;BME280;22232;50.914;13.858;2023-04-23T02:13:06;97020.78;;;14.62;82.36
36190;BME280;22232;50.914;13.858;2023-04-23T02:15:33;97025.06;;;14.63;82.08
36190;BME280;22232;50.914;13.858;2023-04-23T02:18:01;97028.84;;;14.57;82.07
36190;BME280;22232;50.914;13.858;2023-04-23T02:20:29;97027.56;;;14.55;84.26
36190;BME280;22232;50.914;13.858;2023-04-23T02:22:56;97020.28;;;14.55;85.28
36190;BME280;22232;50.914;13.858;2023-04-23T02:25:24;97021.88;;;14.56;84.40
36190;BME280;22232;50.914;13.858;2023-04-23T02:27:52;97024.03;;;14.54;85.20
36190;BME280;22232;50.914;13.858;2023-04-23T02:30:19;97022.19;;;14.55;85.22
36190;BME280;22232;50.914;13.858;2023-04-23T02:32:49;97016.00;;;14.49;88.32
36190;BME280;22232;50.914;13.858;2023-04-23T02:35:16;97019.00;;;14.37;91.81
36190;BME280;22232;50.914;13.858;2023-04-23T02:37:44;97023.03;;;14.35;93.02
36190;BME280;22232;50.914;13.858;2023-04-23T02:40:12;97030.81;;;14.31;92.86
36190;BME280;22232;50.914;13.858;2023-04-23T02:42:39;97021.16;;;14.30;94.39
36190;BME280;22232;50.914;13.858;2023-04-23T02:45:10;97032.97;;;14.29;94.83
36190;BME280;22232;50.914;13.858;2023-04-23T02:47:38;97030.56;;;14.28;92.74
36190;BME280;22232;50.914;13.858;2023-04-23T02:50:06;97030.03;;;14.26;91.81
36190;BME280;22232;50.914;13.858;2023-04-23T02:52:34;97031.38;;;14.28;91.68
36190;BME280;22232;50.914;13.858;2023-04-23T02:55:03;97029.47;;;14.29;92.83
36190;BME280;22232;50.914;13.858;2023-04-23T02:57:31;97029.47;;;14.29;91.56
36190;BME280;22232;50.914;13.858;2023-04-23T02:59:59;97030.78;;;14.36;90.52
36190;BME280;22232;50.914;13.858;2023-04-23T03:02:34;97031.88;;;14.35;91.07
36190;BME280;22232;50.914;13.858;2023-04-23T03:05:03;97027.34;;;14.31;90.50
36190;BME280;22232;50.914;13.858;2023-04-23T03:07:31;97021.16;;;14.30;92.38
36190;BME280;22232;50.914;13.858;2023-04-23T03:09:59;97027.59;;;14.29;92.89
36190;BME280;22232;50.914;13.858;2023-04-23T03:12:27;97020.09;;;14.26;92.80
36190;BME280;22232;50.914;13.858;2023-04-23T03:14:55;97020.66;;;14.23;94.46
36190;BME280;22232;50.914;13.858;2023-04-23T03:17:25;97015.28;;;14.23;92.34
36190;BME280;22232;50.914;13.858;2023-04-23T03:19:53;97008.03;;;14.23;94.72
36190;BME280;22232;50.914;13.858;2023-04-23T03:22:21;97001.38;;;14.16;94.44
36190;BME280;22232;50.914;13.858;2023-04-23T03:24:49;96993.56;;;14.14;96.40
36190;BME280;22232;50.914;13.858;2023-04-23T03:27:17;96987.91;;;14.21;97.29
36190;BME280;22232;50.914;13.858;2023-04-23T03:29:44;96982.84;;;14.19;100.00
36190;BME280;22232;50.914;13.858;2023-04-23T03:32:12;96980.09;;;14.35;100.00
36190;BME280;22232;50.914;13.858;2023-04-23T03:34:40;96972.84;;;14.35;100.00
36190;BME280;22232;50.914;13.858;2023-04-23T03:37:08;96978.09;;;14.01;100.00
36190;BME280;22232;50.914;13.858;2023-04-23T03:39:37;96985.34;;;13.90;100.00
36190;BME280;22232;50.914;13.858;2023-04-23T03:42:06;96974.59;;;13.95;100.00
36190;BME280;22232;50.914;13.858;2023-04-23T03:44:35;96973.28;;;13.93;100.00
36190;BME280;22232;50.914;13.858;2023-04-23T03:47:03;96976.75;;;13.93;100.00
36190;BME280;22232;50.914;13.858;2023-04-23T03:49:32;96967.66;;;13.84;100.00
36190;BME280;22232;50.914;13.858;2023-04-23T03:51:59;96960.44;;;13.80;100.00
36190;BME280;22232;50.914;13.858;2023-04-23T03:54:29;96970.38;;;13.79;100.00
36190;BME280;22232;50.914;13.858;2023-04-23T03:57:03;96977.91;;;13.62;100.00
36190;BME280;22232;50.914;13.858;2023-04-23T03:59:37;96966.13;;;13.47;100.00
36190;BME280;22232;50.914;13.858;2023-04-23T04:02:05;96975.50;;;13.55;100.00
36190;BME280;22232;50.914;13.858;2023-04-23T04:04:33;96973.91;;;13.49;100.00
36190;BME280;22232;50.914;13.858;2023-04-23T04:07:01;96966.13;;;13.52;100.00
36190;BME280;22232;50.914;13.858;2023-04-23T04:09:28;96961.31;;;13.49;100.00
36190;BME280;22232;50.914;13.858;2023-04-23T04:12:00;96959.41;;;13.45;100.00
36190;BME280;22232;50.914;13.858;2023-04-23T04:14:28;96960.25;;;13.40;100.00
36190;BME280;22232;50.914;13.858;2023-04-23T04:16:55;96967.22;;;13.36;100.00
36190;BME280;22232;50.914;13.858;2023-04-23T04:19:23;96962.66;;;13.31;100.00
36190;BME280;22232;50.914;13.858;2023-04-23T04:21:50;96959.16;;;13.41;100.00
36190;BME280;22232;50.914;13.858;2023-04-23T04:24:18;96959.16;;;13.41;100.00
36190;BME280;22232;50.914;13.858;2023-04-23T04:26:46;96953.53;;;13.38;100.00
36190;BME280;22232;50.914;13.858;2023-04-23T04:29:14;96957.28;;;13.31;100.00
36190;BME280;22232;50.914;13.858;2023-04-23T04:31:42;96954.91;;;13.30;100.00
36190;BME280;22232;50.914;13.858;2023-04-23T04:34:09;96961.84;;;13.26;100.00
36190;BME280;22232;50.914;13.858;2023-04-23T04:36:37;96966.94;;;13.43;100.00
36190;BME280;22232;50.914;13.858;2023-04-23T04:39:04;96972.28;;;13.53;100.00
36190;BME280;22232;50.914;13.858;2023-04-23T04:41:32;96972.25;;;13.68;100.00
36190;BME280;22232;50.914;13.858;2023-04-23T04:44:00;96971.41;;;13.88;100.00
36190;BME280;22232;50.914;13.858;2023-04-23T04:46:28;96972.44;;;14.03;100.00
36190;BME280;22232;50.914;13.858;2023-04-23T04:48:55;96978.28;;;14.15;100.00
36190;BME280;22232;50.914;13.858;2023-04-23T04:51:23;96979.56;;;14.33;100.00
36190;BME280;22232;50.914;13.858;2023-04-23T04:53:50;96971.19;;;14.44;100.00
36190;BME280;22232;50.914;13.858;2023-04-23T04:56:18;96976.56;;;14.55;100.00
36190;BME280;22232;50.914;13.858;2023-04-23T04:58:45;96972.16;;;14.69;100.00
36190;BME280;22232;50.914;13.858;2023-04-23T05:01:13;96971.84;;;14.76;100.00
36190;BME280;22232;50.914;13.858;2023-04-23T05:03:40;96967.81;;;14.78;100.00
36190;BME280;22232;50.914;13.858;2023-04-23T05:06:08;96969.38;;;14.84;100.00
36190;BME280;22232;50.914;13.858;2023-04-23T05:08:37;96972.28;;;14.93;100.00
36190;BME280;22232;50.914;13.858;2023-04-23T05:11:04;96968.78;;;14.98;100.00
36190;BME280;22232;50.914;13.858;2023-04-23T05:13:32;96975.44;;;15.05;100.00
36190;BME280;22232;50.914;13.858;2023-04-23T05:15:59;96989.63;;;15.11;100.00
36190;BME280;22232;50.914;13.858;2023-04-23T05:18:27;96986.34;;;15.19;100.00
36190;BME280;22232;50.914;13.858;2023-04-23T05:20:55;96988.47;;;15.22;100.00
36190;BME280;22232;50.914;13.858;2023-04-23T05:23:23;96993.78;;;15.27;100.00
36190;BME280;22232;50.914;13.858;2023-04-23T05:25:51;96993.53;;;15.29;100.00
36190;BME280;22232;50.914;13.858;2023-04-23T05:28:22;96996.44;;;15.32;100.00
36190;BME280;22232;50.914;13.858;2023-04-23T05:30:49;96993.09;;;15.46;100.00
36190;BME280;22232;50.914;13.858;2023-04-23T05:33:17;96993.09;;;15.46;100.00
36190;BME280;22232;50.914;13.858;2023-04-23T05:35:45;96990.91;;;15.53;100.00
36190;BME280;22232;50.914;13.858;2023-04-23T05:38:12;96996.28;;;15.53;100.00
36190;BME280;22232;50.914;13.858;2023-04-23T05:40:40;96993.06;;;15.51;100.00
36190;BME280;22232;50.914;13.858;2023-04-23T05:43:07;96998.91;;;15.58;100.00
36190;BME280;22232;50.914;13.858;2023-04-23T05:45:35;96991.28;;;15.41;100.00
36190;BME280;22232;50.914;13.858;2023-04-23T05:48:02;96999.25;;;15.51;100.00
36190;BME280;22232;50.914;13.858;2023-04-23T05:50:30;96997.84;;;15.59;100.00
36190;BME280;22232;50.914;13.858;2023-04-23T05:52:57;96998.41;;;15.56;100.00
36190;BME280;22232;50.914;13.858;2023-04-23T05:55:25;97008.81;;;15.68;100.00
36190;BME280;22232;50.914;13.858;2023-04-23T05:57:53;97003.16;;;15.64;100.00
36190;BME280;22232;50.914;13.858;2023-04-23T06:00:20;97000.19;;;15.71;100.00
36190;BME280;22232;50.914;13.858;2023-04-23T06:02:48;97003.91;;;15.75;100.00
36190;BME280;22232;50.914;13.858;2023-04-23T06:05:15;97006.22;;;15.87;100.00
36190;BME280;22232;50.914;13.858;2023-04-23T06:07:43;96997.19;;;16.01;100.00
36190;BME280;22232;50.914;13.858;2023-04-23T06:10:11;96992.38;;;15.98;100.00
36190;BME280;22232;50.914;13.858;2023-04-23T06:12:39;97000.88;;;16.11;100.00
36190;BME280;22232;50.914;13.858;2023-04-23T06:15:08;96996.16;;;16.21;100.00
36190;BME280;22232;50.914;13.858;2023-04-23T06:17:36;96997.75;;;16.46;100.00
36190;BME280;22232;50.914;13.858;2023-04-23T06:20:05;97000.00;;;16.58;100.00
36190;BME280;22232;50.914;13.858;2023-04-23T06:22:33;97002.91;;;16.86;100.00
36190;BME280;22232;50.914;13.858;2023-04-23T06:25:01;97001.84;;;17.06;100.00
36190;BME280;22232;50.914;13.858;2023-04-23T06:27:28;97001.22;;;17.28;99.32
36190;BME280;22232;50.914;13.858;2023-04-23T06:30:01;97008.47;;;17.46;100.00
36190;BME280;22232;50.914;13.858;2023-04-23T06:32:28;96996.97;;;17.73;95.36
36190;BME280;22232;50.914;13.858;2023-04-23T06:34:56;97011.16;;;18.11;94.52
36190;BME280;22232;50.914;13.858;2023-04-23T06:37:28;97006.94;;;18.47;87.52
36190;BME280;22232;50.914;13.858;2023-04-23T06:39:58;97003.03;;;18.80;86.75
36190;BME280;22232;50.914;13.858;2023-04-23T06:42:26;97008.69;;;19.07;84.76
36190;BME280;22232;50.914;13.858;2023-04-23T06:45:12;97006.41;;;19.00;85.92
36190;BME280;22232;50.914;13.858;2023-04-23T06:47:41;97011.63;;;18.96;86.18
36190;BME280;22232;50.914;13.858;2023-04-23T06:50:09;97011.81;;;18.86;85.44
36190;BME280;22232;50.914;13.858;2023-04-23T06:52:36;97014.03;;;18.70;88.23
36190;BME280;22232;50.914;13.858;2023-04-23T06:55:04;97010.25;;;18.44;90.84
36190;BME280;22232;50.914;13.858;2023-04-23T06:57:32;97010.44;;;18.20;91.94
36190;BME280;22232;50.914;13.858;2023-04-23T07:00:00;97020.56;;;18.14;93.63
36190;BME280;22232;50.914;13.858;2023-04-23T07:02:33;97012.53;;;17.95;91.76
36190;BME280;22232;50.914;13.858;2023-04-23T07:05:01;97015.00;;;17.78;97.97
36190;BME280;22232;50.914;13.858;2023-04-23T07:07:28;97018.94;;;17.66;96.89
36190;BME280;22232;50.914;13.858;2023-04-23T07:09:56;97011.94;;;17.65;98.82
36190;BME280;22232;50.914;13.858;2023-04-23T07:12:23;97016.81;;;17.63;99.26
36190;BME280;22232;50.914;13.858;2023-04-23T07:14:51;97016.03;;;17.63;99.21
36190;BME280;22232;50.914;13.858;2023-04-23T07:17:20;97016.81;;;17.63;100.00
36190;BME280;22232;50.914;13.858;2023-04-23T07:19:48;97022.50;;;17.62;100.00
36190;BME280;22232;50.914;13.858;2023-04-23T07:22:15;97018.00;;;17.57;100.00
36190;BME280;22232;50.914;13.858;2023-04-23T07:24:43;97017.66;;;17.45;100.00
36190;BME280;22232;50.914;13.858;2023-04-23T07:27:11;97030.84;;;17.47;100.00
36190;BME280;22232;50.914;13.858;2023-04-23T07:29:38;97030.50;;;17.53;100.00
36190;BME280;22232;50.914;13.858;2023-04-23T07:32:06;97021.13;;;17.64;100.00
36190;BME280;22232;50.914;13.858;2023-04-23T07:34:33;97026.50;;;17.64;100.00
36190;BME280;22232;50.914;13.858;2023-04-23T07:37:04;97033.91;;;17.92;100.00
36190;BME280;22232;50.914;13.858;2023-04-23T07:39:33;97029.22;;;17.97;100.00
36190;BME280;22232;50.914;13.858;2023-04-23T07:42:01;97023.75;;;18.02;100.00
36190;BME280;22232;50.914;13.858;2023-04-23T07:44:28;97037.25;;;18.30;100.00
36190;BME280;22232;50.914;13.858;2023-04-23T07:46:56;97028.16;;;18.53;100.00
36190;BME280;22232;50.914;13.858;2023-04-23T07:49:23;97037.03;;;18.68;100.00
36190;BME280;22232;50.914;13.858;2023-04-23T07:51:51;97037.53;;;18.70;100.00
36190;BME280;22232;50.914;13.858;2023-04-23T07:54:19;97035.91;;;19.10;100.00
36190;BME280;22232;50.914;13.858;2023-04-23T07:56:47;97036.94;;;19.23;100.00
36190;BME280;22232;50.914;13.858;2023-04-23T07:59:14;97038.78;;;19.14;100.00
36190;BME280;22232;50.914;13.858;2023-04-23T08:01:42;97044.06;;;19.55;96.64
36190;BME280;22232;50.914;13.858;2023-04-23T08:04:10;97039.50;;;19.42;96.81
36190;BME280;22232;50.914;13.858;2023-04-23T08:06:38;97041.47;;;19.28;93.30
36190;BME280;22232;50.914;13.858;2023-04-23T08:09:06;97037.41;;;19.39;94.93
36190;BME280;22232;50.914;13.858;2023-04-23T08:11:33;97030.59;;;19.86;93.92
36190;BME280;22232;50.914;13.858;2023-04-23T08:14:01;97029.38;;;20.81;93.80
36190;BME280;22232;50.914;13.858;2023-04-23T08:16:29;97030.09;;;21.73;82.97
36190;BME280;22232;50.914;13.858;2023-04-23T08:18:57;97030.13;;;22.12;81.39
36190;BME280;22232;50.914;13.858;2023-04-23T08:21:32;97030.66;;;22.52;71.15
36190;BME280;22232;50.914;13.858;2023-04-23T08:24:00;97030.47;;;23.17;70.79
36190;BME280;22232;50.914;13.858;2023-04-23T08:26:29;97034.97;;;23.88;66.51
36190;BME280;22232;50.914;13.858;2023-04-23T08:28:58;97041.31;;;24.37;61.43
36190;BME280;22232;50.914;13.858;2023-04-23T08:31:27;97035.63;;;24.30;59.11
36190;BME280;22232;50.914;13.858;2023-04-23T08:33:55;97039.53;;;23.63;59.08
36190;BME280;22232;50.914;13.858;2023-04-23T08:36:22;97041.41;;;23.50;60.08
36190;BME280;22232;50.914;13.858;2023-04-23T08:38:50;97050.44;;;23.42;60.06
36190;BME280;22232;50.914;13.858;2023-04-23T08:41:21;97041.47;;;22.61;61.99
36190;BME280;22232;50.914;13.858;2023-04-23T08:43:54;97045.84;;;22.53;62.60
36190;BME280;22232;50.914;13.858;2023-04-23T08:46:30;97047.22;;;22.21;69.27
36190;BME280;22232;50.914;13.858;2023-04-23T08:48:59;97055.72;;;22.19;67.96
36190;BME280;22232;50.914;13.858;2023-04-23T08:51:29;97054.81;;;21.89;67.58
36190;BME280;22232;50.914;13.858;2023-04-23T08:53:58;97058.03;;;21.65;63.44
36190;BME280;22232;50.914;13.858;2023-04-23T08:56:27;97058.47;;;21.24;70.84
36190;BME280;22232;50.914;13.858;2023-04-23T08:58:55;97059.91;;;21.13;76.00
36190;BME280;22232;50.914;13.858;2023-04-23T09:01:23;97065.44;;;20.90;73.68
36190;BME280;22232;50.914;13.858;2023-04-23T09:03:52;97073.03;;;20.62;83.18
36190;BME280;22232;50.914;13.858;2023-04-23T09:06:20;97065.13;;;20.43;82.26
36190;BME280;22232;50.914;13.858;2023-04-23T09:08:48;97064.91;;;20.31;84.41
36190;BME280;22232;50.914;13.858;2023-04-23T09:11:16;97070.88;;;19.88;86.31
36190;BME280;22232;50.914;13.858;2023-04-23T09:13:43;97074.66;;;19.78;90.60
36190;BME280;22232;50.914;13.858;2023-04-23T09:16:11;97083.50;;;19.56;91.60
36190;BME280;22232;50.914;13.858;2023-04-23T09:18:39;97087.91;;;19.30;90.79
36190;BME280;22232;50.914;13.858;2023-04-23T09:21:06;97085.56;;;19.14;96.05
36190;BME280;22232;50.914;13.858;2023-04-23T09:23:38;97087.38;;;18.91;96.57
36190;BME280;22232;50.914;13.858;2023-04-23T09:26:07;97099.00;;;18.78;98.74
36190;BME280;22232;50.914;13.858;2023-04-23T09:28:35;97091.66;;;18.65;100.00
36190;BME280;22232;50.914;13.858;2023-04-23T09:31:04;97101.38;;;18.52;100.00
36190;BME280;22232;50.914;13.858;2023-04-23T09:33:35;97088.16;;;18.37;100.00
36190;BME280;22232;50.914;13.858;2023-04-23T09:36:09;97087.34;;;18.36;100.00
36190;BME280;22232;50.914;13.858;2023-04-23T09:38:40;97090.28;;;18.07;100.00
36190;BME280;22232;50.914;13.858;2023-04-23T09:41:25;97085.84;;;18.30;100.00
36190;BME280;22232;50.914;13.858;2023-04-23T09:43:54;97083.06;;;18.63;100.00
36190;BME280;22232;50.914;13.858;2023-04-23T09:49:01;97086.44;;;19.23;99.53
36190;BME280;22232;50.914;13.858;2023-04-23T09:51:30;97088.22;;;19.28;100.00
36190;BME280;22232;50.914;13.858;2023-04-23T09:54:00;97081.91;;;19.33;97.17
36190;BME280;22232;50.914;13.858;2023-04-23T09:56:30;97087.97;;;19.38;96.80
36190;BME280;22232;50.914;13.858;2023-04-23T09:58:58;97089.00;;;19.29;97.14
36190;BME280;22232;50.914;13.858;2023-04-23T10:01:29;97089.94;;;19.10;100.00
36190;BME280;22232;50.914;13.858;2023-04-23T10:03:56;97091.25;;;19.13;100.00
36190;BME280;22232;50.914;13.858;2023-04-23T10:06:27;97091.25;;;19.13;100.00
36190;BME280;22232;50.914;13.858;2023-04-23T10:09:15;97086.88;;;19.03;99.38
36190;BME280;22232;50.914;13.858;2023-04-23T10:11:43;97092.00;;;18.77;96.04
36190;BME280;22232;50.914;13.858;2023-04-23T10:14:11;97091.47;;;18.47;98.09
36190;BME280;22232;50.914;13.858;2023-04-23T10:16:39;97089.34;;;18.30;100.00
36190;BME280;22232;50.914;13.858;2023-04-23T10:19:17;97082.94;;;18.26;100.00
36190;BME280;22232;50.914;13.858;2023-04-23T10:21:45;97081.44;;;18.20;100.00
36190;BME280;22232;50.914;13.858;2023-04-23T10:24:28;97072.69;;;17.96;100.00
36190;BME280;22232;50.914;13.858;2023-04-23T10:26:58;97074.88;;;17.94;100.00
36190;BME280;22232;50.914;13.858;2023-04-23T10:29:32;97073.38;;;17.87;100.00
36190;BME280;22232;50.914;13.858;2023-04-23T10:32:02;97076.91;;;18.02;100.00
36190;BME280;22232;50.914;13.858;2023-04-23T10:34:30;97075.06;;;17.83;100.00
36190;BME280;22232;50.914;13.858;2023-04-23T10:37:00;97077.78;;;17.97;100.00
36190;BME280;22232;50.914;13.858;2023-04-23T10:39:31;97079.03;;;17.86;100.00
36190;BME280;22232;50.914;13.858;2023-04-23T10:42:00;97073.75;;;17.81;100.00
36190;BME280;22232;50.914;13.858;2023-04-23T10:44:41;97061.28;;;17.66;100.00
36190;BME280;22232;50.914;13.858;2023-04-23T10:47:14;97079.16;;;17.81;100.00
36190;BME280;22232;50.914;13.858;2023-04-23T10:49:43;97082.91;;;17.80;100.00
36190;BME280;22232;50.914;13.858;2023-04-23T10:52:15;97084.25;;;17.63;100.00
36190;BME280;22232;50.914;13.858;2023-04-23T10:54:56;97084.97;;;17.88;100.00
36190;BME280;22232;50.914;13.858;2023-04-23T10:57:26;97079.44;;;18.26;100.00
36190;BME280;22232;50.914;13.858;2023-04-23T10:59:54;97089.56;;;18.89;100.00
36190;BME280;22232;50.914;13.858;2023-04-23T11:02:23;97090.63;;;19.30;98.32
36190;BME280;22232;50.914;13.858;2023-04-23T11:04:55;97080.91;;;19.65;95.37
36190;BME280;22232;50.914;13.858;2023-04-23T11:07:31;97082.19;;;19.67;91.27
36190;BME280;22232;50.914;13.858;2023-04-23T11:10:09;97091.13;;;19.68;91.53
36190;BME280;22232;50.914;13.858;2023-04-23T11:12:38;97079.22;;;19.69;87.95
36190;BME280;22232;50.914;13.858;2023-04-23T11:15:13;97069.78;;;19.66;90.11
36190;BME280;22232;50.914;13.858;2023-04-23T11:20:20;97063.19;;;20.44;88.14
36190;BME280;22232;50.914;13.858;2023-04-23T11:22:49;97060.59;;;20.61;78.87
36190;BME280;22232;50.914;13.858;2023-04-23T11:27:50;97054.94;;;20.49;81.00
36190;BME280;22232;50.914;13.858;2023-04-23T11:30:20;97068.91;;;20.65;80.96
36190;BME280;22232;50.914;13.858;2023-04-23T11:32:50;97066.66;;;20.58;79.65
36190;BME280;22232;50.914;13.858;2023-04-23T11:35:21;97054.88;;;20.31;82.97
36190;BME280;22232;50.914;13.858;2023-04-23T11:37:49;97073.19;;;19.58;85.43
36190;BME280;22232;50.914;13.858;2023-04-23T11:40:17;97077.03;;;19.80;88.73
36190;BME280;22232;50.914;13.858;2023-04-23T11:42:48;97078.34;;;19.82;84.28
36190;BME280;22232;50.914;13.858;2023-04-23T11:45:20;97076.69;;;19.73;85.96
36190;BME280;22232;50.914;13.858;2023-04-23T11:47:50;97074.09;;;19.67;87.09
36190;BME280;22232;50.914;13.858;2023-04-23T11:50:30;97074.44;;;19.75;85.29
36190;BME280;22232;50.914;13.858;2023-04-23T11:53:09;97068.84;;;19.71;84.48
36190;BME280;22232;50.914;13.858;2023-04-23T11:55:37;97067.25;;;19.92;92.69
36190;BME280;22232;50.914;13.858;2023-04-23T11:58:10;97055.78;;;20.27;94.51
36190;BME280;22232;50.914;13.858;2023-04-23T12:00:37;97054.25;;;20.34;90.61
36190;BME280;22232;50.914;13.858;2023-04-23T12:03:05;97048.16;;;20.60;85.88
36190;BME280;22232;50.914;13.858;2023-04-23T12:05:43;97045.19;;;20.88;82.03
36190;BME280;22232;50.914;13.858;2023-04-23T12:08:18;97047.94;;;21.05;76.78
36190;BME280;22232;50.914;13.858;2023-04-23T12:10:54;97042.69;;;21.00;85.09
36190;BME280;22232;50.914;13.858;2023-04-23T12:13:22;97047.00;;;21.27;81.21
36190;BME280;22232;50.914;13.858;2023-04-23T12:15:55;97045.59;;;21.56;79.05
36190;BME280;22232;50.914;13.858;2023-04-23T12:18:28;97048.75;;;21.66;73.04
36190;BME280;22232;50.914;13.858;2023-04-23T12:21:07;97051.03;;;21.47;73.16
36190;BME280;22232;50.914;13.858;2023-04-23T12:23:36;97058.47;;;21.24;69.31
36190;BME280;22232;50.914;13.858;2023-04-23T12:26:09;97054.28;;;20.83;75.91
36190;BME280;22232;50.914;13.858;2023-04-23T12:28:51;97064.91;;;20.62;75.84
36190;BME280;22232;50.914;13.858;2023-04-23T12:31:20;97062.03;;;20.27;80.23
36190;BME280;22232;50.914;13.858;2023-04-23T12:34:00;97071.19;;;20.17;85.54
36190;BME280;22232;50.914;13.858;2023-04-23T12:36:28;97067.47;;;20.05;84.82
36190;BME280;22232;50.914;13.858;2023-04-23T12:39:27;97071.09;;;19.55;85.04
36190;BME280;22232;50.914;13.858;2023-04-23T12:42:00;97071.53;;;19.48;93.10
36190;BME280;22232;50.914;13.858;2023-04-23T12:44:38;97071.13;;;19.19;99.59
36190;BME280;22232;50.914;13.858;2023-04-23T12:47:07;97070.13;;;19.15;99.28
36190;BME280;22232;50.914;13.858;2023-04-23T12:49:38;97065.53;;;19.01;100.00
36190;BME280;22232;50.914;13.858;2023-04-23T12:52:07;97071.78;;;19.02;100.00
36190;BME280;22232;50.914;13.858;2023-04-23T12:54:40;97075.66;;;18.96;100.00
36190;BME280;22232;50.914;13.858;2023-04-23T12:57:11;97067.47;;;18.87;100.00
36190;BME280;22232;50.914;13.858;2023-04-23T12:59:39;97066.47;;;18.97;100.00
36190;BME280;22232;50.914;13.858;2023-04-23T13:02:08;97069.06;;;19.02;100.00
36190;BME280;22232;50.914;13.858;2023-04-23T13:04:36;97061.00;;;19.11;100.00